createdAt,value
2019-01-26T00:01:09.545Z,-1.70
2019-01-26T00:03:42.312Z,-1.70
2019-01-26T00:06:14.920Z,-1.80
2019-01-26T00:08:47.720Z,-1.70
2019-01-26T00:11:20.102Z,-1.60
2019-01-26T00:13:52.628Z,-1.70
2019-01-26T00:16:25.181Z,-1.70
2019-01-26T00:18:59.427Z,-1.70
2019-01-26T00:21:31.781Z,-1.70
2019-01-26T00:24:04.855Z,-1.70
2019-01-26T00:26:37.350Z,-1.80
2019-01-26T00:29:09.919Z,-1.80
2019-01-26T00:31:42.285Z,-1.80
2019-01-26T00:34:15.200Z,-1.80
2019-01-26T00:36:49.318Z,-1.80
2019-01-26T00:39:21.889Z,-1.80
2019-01-26T00:41:54.556Z,-1.80
2019-01-26T00:44:26.999Z,-1.90
2019-01-26T00:46:59.409Z,-1.90
2019-01-26T00:49:31.955Z,-1.90
2019-01-26T00:52:04.359Z,-1.90
2019-01-26T00:54:36.960Z,-1.90
2019-01-26T00:57:09.679Z,-1.90
2019-01-26T00:59:42.022Z,-1.80
2019-01-26T01:02:14.846Z,-1.90
2019-01-26T01:04:47.157Z,-1.90
2019-01-26T01:07:19.808Z,-2.00
2019-01-26T01:09:53.320Z,-2.00
2019-01-26T01:12:26.036Z,-2.00
2019-01-26T01:14:58.414Z,-2.00
2019-01-26T01:17:30.827Z,-1.90
2019-01-26T01:20:03.348Z,-2.00
2019-01-26T01:22:35.976Z,-1.90
2019-01-26T01:25:09.153Z,-2.00
2019-01-26T01:27:41.716Z,-2.00
2019-01-26T01:30:18.436Z,-2.00
2019-01-26T01:32:51.000Z,-2.10
2019-01-26T01:35:23.352Z,-2.10
2019-01-26T01:37:55.940Z,-2.10
2019-01-26T01:40:28.385Z,-2.10
2019-01-26T01:43:00.743Z,-2.00
2019-01-26T01:45:33.582Z,-2.10
2019-01-26T01:48:05.975Z,-2.20
2019-01-26T01:50:38.328Z,-2.10
2019-01-26T01:53:10.687Z,-2.20
2019-01-26T01:55:44.774Z,-2.20
2019-01-26T01:58:17.277Z,-2.20
2019-01-26T02:00:49.657Z,-2.20
2019-01-26T02:03:22.065Z,-2.10
2019-01-26T02:05:54.551Z,-2.10
2019-01-26T02:08:26.901Z,-2.10
2019-01-26T02:10:59.246Z,-2.10
2019-01-26T02:13:31.663Z,-2.10
2019-01-26T02:16:04.687Z,-2.20
2019-01-26T02:18:38.113Z,-2.10
2019-01-26T02:21:11.184Z,-2.20
2019-01-26T02:23:43.510Z,-2.00
2019-01-26T02:26:15.857Z,-2.10
2019-01-26T02:28:48.527Z,-2.10
2019-01-26T02:31:20.902Z,-2.10
2019-01-26T02:33:53.551Z,-2.10
2019-01-26T02:36:26.124Z,-2.10
2019-01-26T02:38:58.649Z,-2.00
2019-01-26T02:41:31.135Z,-2.10
2019-01-26T02:44:03.757Z,-2.10
2019-01-26T02:46:36.035Z,-2.10
2019-01-26T02:49:08.435Z,-2.10
2019-01-26T02:51:40.857Z,-2.00
2019-01-26T02:54:13.397Z,-2.00
2019-01-26T02:56:45.893Z,-2.00
2019-01-26T02:59:18.238Z,-2.00
2019-01-26T03:01:50.589Z,-2.00
2019-01-26T03:04:22.983Z,-2.10
2019-01-26T03:06:55.422Z,-2.10
2019-01-26T03:09:27.923Z,-2.10
2019-01-26T03:12:00.520Z,-2.00
2019-01-26T03:14:33.208Z,-2.00
2019-01-26T03:17:06.559Z,-2.10
2019-01-26T03:19:38.956Z,-2.10
2019-01-26T03:22:11.515Z,-2.10
2019-01-26T03:24:43.921Z,-2.10
2019-01-26T03:27:16.493Z,-2.10
2019-01-26T03:29:48.883Z,-2.10
2019-01-26T03:32:21.428Z,-2.10
2019-01-26T03:34:53.789Z,-2.10
2019-01-26T03:37:26.426Z,-2.10
2019-01-26T03:39:58.898Z,-2.10
2019-01-26T03:42:31.543Z,-2.20
2019-01-26T03:45:04.270Z,-2.20
2019-01-26T03:47:36.727Z,-2.20
2019-01-26T03:50:10.923Z,-2.20
2019-01-26T03:52:43.216Z,-2.20
2019-01-26T03:55:18.061Z,-2.20
2019-01-26T03:57:50.930Z,-2.20
2019-01-26T04:00:26.423Z,-2.20
2019-01-26T04:02:58.959Z,-2.20
2019-01-26T04:05:31.455Z,-2.20
2019-01-26T04:08:04.134Z,-2.30
2019-01-26T04:10:36.438Z,-2.30
2019-01-26T04:13:09.127Z,-2.40
2019-01-26T04:15:52.619Z,-2.40
2019-01-26T04:18:25.250Z,-2.40
2019-01-26T04:20:58.036Z,-2.40
2019-01-26T04:23:30.501Z,-2.40
2019-01-26T04:26:03.103Z,-2.40
2019-01-26T04:28:35.609Z,-2.40
2019-01-26T04:31:07.981Z,-2.40
2019-01-26T04:33:40.376Z,-2.40
2019-01-26T04:36:12.834Z,-2.40
2019-01-26T04:38:45.159Z,-2.40
2019-01-26T04:41:17.551Z,-2.40
2019-01-26T04:43:50.182Z,-2.40
2019-01-26T04:46:22.485Z,-2.40
2019-01-26T04:48:55.031Z,-2.30
2019-01-26T04:51:27.548Z,-2.30
2019-01-26T04:53:59.842Z,-2.30
2019-01-26T04:56:32.279Z,-2.30
2019-01-26T04:59:04.727Z,-2.30
2019-01-26T05:01:37.238Z,-2.30
2019-01-26T05:04:09.770Z,-2.30
2019-01-26T05:06:42.316Z,-2.30
2019-01-26T05:09:14.707Z,-2.30
2019-01-26T05:11:47.268Z,-2.30
2019-01-26T05:14:19.845Z,-2.30
2019-01-26T05:16:51.813Z,-2.30
2019-01-26T05:19:24.866Z,-2.40
2019-01-26T05:21:57.374Z,-2.30
2019-01-26T05:24:29.948Z,-2.40
2019-01-26T05:27:02.663Z,-2.30
2019-01-26T05:29:35.180Z,-2.40
2019-01-26T05:32:07.884Z,-2.40
2019-01-26T05:34:40.449Z,-2.40
2019-01-26T05:37:13.009Z,-2.40
2019-01-26T05:39:45.314Z,-2.40
2019-01-26T05:42:17.786Z,-2.40
2019-01-26T05:44:50.295Z,-2.40
2019-01-26T05:47:22.800Z,-2.30
2019-01-26T05:49:55.395Z,-2.30
2019-01-26T05:52:27.850Z,-2.30
2019-01-26T05:55:00.270Z,-2.30
2019-01-26T05:57:32.878Z,-2.30
2019-01-26T06:00:06.368Z,-2.20
2019-01-26T06:02:38.970Z,-2.10
2019-01-26T06:05:11.664Z,-2.00
2019-01-26T06:07:44.141Z,-2.00
2019-01-26T06:10:17.013Z,-1.90
2019-01-26T06:12:49.686Z,-1.90
2019-01-26T06:15:22.344Z,-1.80
2019-01-26T06:17:55.463Z,-1.80
2019-01-26T06:20:28.072Z,-1.70
2019-01-26T06:23:00.414Z,-1.70
2019-01-26T06:25:33.067Z,-1.60
2019-01-26T06:28:05.581Z,-1.60
2019-01-26T06:30:37.833Z,-1.60
2019-01-26T06:33:10.502Z,-1.50
2019-01-26T06:35:42.873Z,-1.50
2019-01-26T06:38:15.249Z,-1.40
2019-01-26T06:40:47.847Z,-1.40
2019-01-26T06:43:20.482Z,-1.30
2019-01-26T06:45:53.028Z,-1.10
2019-01-26T06:48:25.409Z,-1.00
2019-01-26T06:50:59.103Z,-0.80
2019-01-26T06:53:31.711Z,-0.60
2019-01-26T06:56:04.359Z,-0.50
2019-01-26T06:58:36.880Z,-0.40
2019-01-26T07:01:10.597Z,-0.40
2019-01-26T07:03:43.119Z,-0.40
2019-01-26T07:06:33.028Z,-0.50
2019-01-26T07:09:08.526Z,-0.50
2019-01-26T07:11:41.244Z,-0.60
2019-01-26T07:14:13.579Z,-0.60
2019-01-26T07:16:45.858Z,-0.50
2019-01-26T07:19:18.301Z,-0.50
2019-01-26T07:21:50.627Z,-0.50
2019-01-26T07:24:24.845Z,-0.50
2019-01-26T07:26:57.536Z,-0.40
2019-01-26T07:29:30.179Z,-0.40
2019-01-26T07:32:02.652Z,-0.30
2019-01-26T07:34:34.883Z,-0.20
2019-01-26T07:37:07.416Z,-0.10
2019-01-26T07:39:39.731Z,0.00
2019-01-26T07:42:12.215Z,0.00
2019-01-26T07:44:44.521Z,0.00
2019-01-26T07:47:17.081Z,0.10
2019-01-26T07:49:50.702Z,0.10
2019-01-26T07:52:23.529Z,0.10
2019-01-26T07:54:55.844Z,0.20
2019-01-26T07:57:28.125Z,0.20
2019-01-26T08:00:00.524Z,0.30
2019-01-26T08:02:33.126Z,0.30
2019-01-26T08:05:07.007Z,0.40
2019-01-26T08:07:39.345Z,0.40
2019-01-26T08:10:16.173Z,0.40
2019-01-26T08:12:49.240Z,0.40
2019-01-26T08:15:34.379Z,0.40
2019-01-26T08:18:08.510Z,0.40
2019-01-26T08:20:41.102Z,0.40
2019-01-26T08:23:14.018Z,0.40
2019-01-26T08:25:46.255Z,0.50
2019-01-26T08:28:18.846Z,0.70
2019-01-26T08:30:51.071Z,0.70
2019-01-26T08:33:23.595Z,0.80
2019-01-26T08:35:56.006Z,0.80
2019-01-26T08:38:29.772Z,1.00
2019-01-26T08:41:02.119Z,1.10
2019-01-26T08:43:34.893Z,1.20
2019-01-26T08:46:07.428Z,1.10
2019-01-26T08:48:39.808Z,1.10
2019-01-26T08:51:12.077Z,1.10
2019-01-26T08:53:44.543Z,1.10
2019-01-26T08:56:18.330Z,1.20
2019-01-26T08:58:50.557Z,1.20
2019-01-26T09:01:23.111Z,1.30
2019-01-26T09:04:11.773Z,1.30
2019-01-26T09:06:46.879Z,1.30
2019-01-26T09:09:19.176Z,1.30
2019-01-26T09:11:51.677Z,1.40
2019-01-26T09:14:24.228Z,1.40
2019-01-26T09:16:56.728Z,1.40
2019-01-26T09:19:29.267Z,1.50
2019-01-26T09:22:01.793Z,1.50
2019-01-26T09:24:34.151Z,1.60
2019-01-26T09:27:06.915Z,1.70
2019-01-26T09:29:39.338Z,1.60
2019-01-26T09:32:13.436Z,1.50
2019-01-26T09:34:45.763Z,1.60
2019-01-26T09:37:18.885Z,1.60
2019-01-26T09:39:51.224Z,1.50
2019-01-26T09:42:23.602Z,1.50
2019-01-26T09:44:56.179Z,1.40
2019-01-26T09:47:28.646Z,1.40
2019-01-26T09:50:01.018Z,1.50
2019-01-26T09:52:33.496Z,1.50
2019-01-26T09:55:06.786Z,1.50
2019-01-26T09:57:39.322Z,1.50
2019-01-26T10:00:16.167Z,1.50
2019-01-26T10:02:48.740Z,1.60
2019-01-26T10:05:21.235Z,1.50
2019-01-26T10:07:54.471Z,1.60
2019-01-26T10:10:27.081Z,1.60
2019-01-26T10:12:59.522Z,1.60
2019-01-26T10:15:32.580Z,1.60
2019-01-26T10:18:05.456Z,1.70
2019-01-26T10:20:39.114Z,1.80
2019-01-26T10:23:11.675Z,1.80
2019-01-26T10:25:48.610Z,1.90
2019-01-26T10:28:17.865Z,1.80
2019-01-26T10:30:52.955Z,1.90
2019-01-26T10:33:25.922Z,1.90
2019-01-26T10:36:17.063Z,1.90
2019-01-26T10:38:58.170Z,2.00
2019-01-26T10:41:45.429Z,2.00
2019-01-26T10:44:31.546Z,2.00
2019-01-26T10:47:04.313Z,1.90
2019-01-26T10:49:36.816Z,1.90
2019-01-26T10:52:09.566Z,1.90
2019-01-26T10:54:43.639Z,1.80
2019-01-26T10:57:16.188Z,1.40
2019-01-26T10:59:48.792Z,1.10
2019-01-26T11:02:21.215Z,0.80
2019-01-26T11:04:53.601Z,0.60
2019-01-26T11:07:26.335Z,0.40
2019-01-26T11:10:00.634Z,0.30
2019-01-26T11:12:33.353Z,0.20
2019-01-26T11:15:06.281Z,0.10
2019-01-26T11:17:38.745Z,0.00
2019-01-26T11:20:12.226Z,-0.10
2019-01-26T11:22:44.940Z,-0.20
2019-01-26T11:25:17.508Z,-0.30
2019-01-26T11:27:50.038Z,-0.30
2019-01-26T11:30:24.143Z,-0.40
2019-01-26T11:32:56.485Z,-0.40
2019-01-26T11:35:29.070Z,-0.50
2019-01-26T11:38:01.459Z,-0.50
2019-01-26T11:40:34.385Z,-0.60
2019-01-26T11:43:06.967Z,-0.60
2019-01-26T11:45:56.749Z,-0.70
2019-01-26T11:48:32.175Z,-0.80
2019-01-26T11:51:26.605Z,-0.80
2019-01-26T11:53:59.026Z,-0.80
2019-01-26T11:56:56.101Z,-0.80
2019-01-26T11:59:28.508Z,-0.90
2019-01-26T12:02:19.693Z,-0.80
2019-01-26T12:05:14.214Z,-0.80
2019-01-26T12:07:46.621Z,-0.80
2019-01-26T12:10:18.944Z,-0.80
2019-01-26T12:12:51.520Z,-0.80
2019-01-26T12:15:24.054Z,-0.80
2019-01-26T12:17:56.574Z,-0.80
2019-01-26T12:20:29.264Z,-0.80
2019-01-26T12:23:02.012Z,-0.80
2019-01-26T12:25:34.700Z,-0.90
2019-01-26T12:28:07.258Z,-0.90
2019-01-26T12:30:39.899Z,-0.90
2019-01-26T12:33:12.528Z,-0.90
2019-01-26T12:35:45.315Z,-0.90
2019-01-26T12:38:17.900Z,-0.80
2019-01-26T12:40:50.250Z,-0.90
2019-01-26T12:43:22.836Z,-0.80
2019-01-26T12:45:55.461Z,-0.80
2019-01-26T12:48:27.956Z,-0.80
2019-01-26T12:51:00.352Z,-0.80
2019-01-26T12:53:32.668Z,-0.80
2019-01-26T12:56:05.827Z,-0.80
2019-01-26T12:58:38.305Z,-0.80
2019-01-26T13:01:11.165Z,-0.80
2019-01-26T13:03:43.642Z,-0.70
2019-01-26T13:06:16.121Z,-0.70
2019-01-26T13:08:48.456Z,-0.70
2019-01-26T13:11:27.339Z,-0.70
2019-01-26T13:13:59.862Z,-0.70
2019-01-26T13:16:32.503Z,-0.60
2019-01-26T13:19:05.534Z,-0.70
2019-01-26T13:21:38.188Z,-0.70
2019-01-26T13:24:10.992Z,-0.70
2019-01-26T13:26:43.544Z,-0.60
2019-01-26T13:29:16.382Z,-0.60
2019-01-26T13:31:48.789Z,-0.60
2019-01-26T13:34:21.369Z,-0.50
2019-01-26T13:36:53.993Z,-0.50
2019-01-26T13:39:26.574Z,-0.40
2019-01-26T13:41:59.304Z,-0.50
2019-01-26T13:44:31.657Z,-0.50
2019-01-26T13:47:04.097Z,-0.40
2019-01-26T13:49:36.800Z,-0.40
2019-01-26T13:52:09.248Z,-0.40
2019-01-26T13:54:41.681Z,-0.40
2019-01-26T13:57:14.482Z,-0.40
2019-01-26T13:59:46.880Z,-0.30
2019-01-26T14:02:19.248Z,-0.30
2019-01-26T14:04:51.901Z,-0.30
2019-01-26T14:07:24.542Z,-0.30
2019-01-26T14:09:57.019Z,-0.40
2019-01-26T14:12:29.411Z,-0.40
2019-01-26T14:15:01.859Z,-0.40
2019-01-26T14:17:34.623Z,-0.40
2019-01-26T14:20:10.199Z,-0.40
2019-01-26T14:22:42.646Z,-0.50
2019-01-26T14:25:15.544Z,-0.50
2019-01-26T14:27:48.233Z,-0.50
2019-01-26T14:30:39.720Z,-0.50
2019-01-26T14:33:12.286Z,-0.50
2019-01-26T14:35:44.718Z,-0.60
2019-01-26T14:38:17.615Z,-0.60
2019-01-26T14:40:50.028Z,-0.60
2019-01-26T14:43:22.587Z,-0.60
2019-01-26T14:45:55.014Z,-0.60
2019-01-26T14:48:27.495Z,-0.60
2019-01-26T14:50:59.954Z,-0.50
2019-01-26T14:53:33.145Z,-0.50
2019-01-26T14:56:07.614Z,-0.60
2019-01-26T14:58:40.244Z,-0.60
2019-01-26T15:01:12.619Z,-0.50
2019-01-26T15:03:45.034Z,-0.50
2019-01-26T15:06:17.605Z,-0.30
2019-01-26T15:08:50.254Z,-0.40
2019-01-26T15:11:23.751Z,-0.40
2019-01-26T15:13:56.225Z,-0.50
2019-01-26T15:16:28.589Z,-0.50
2019-01-26T15:19:01.013Z,-0.60
2019-01-26T15:21:33.665Z,-0.60
2019-01-26T15:24:06.359Z,-0.60
2019-01-26T15:26:38.973Z,-0.60
2019-01-26T15:29:11.618Z,-0.50
2019-01-26T15:31:44.024Z,-0.50
2019-01-26T15:34:16.810Z,-0.50
2019-01-26T15:36:49.178Z,-0.50
2019-01-26T15:39:21.851Z,-0.50
2019-01-26T15:41:54.399Z,-0.50
2019-01-26T15:44:26.951Z,-0.50
2019-01-26T15:46:59.515Z,-0.40
2019-01-26T15:49:32.398Z,-0.40
2019-01-26T15:52:05.267Z,-0.40
2019-01-26T15:54:37.782Z,-0.30
2019-01-26T15:57:10.324Z,-0.30
2019-01-26T15:59:42.717Z,-0.30
2019-01-26T16:02:15.432Z,-0.30
2019-01-26T16:04:48.215Z,-0.30
2019-01-26T16:07:20.690Z,-0.10
2019-01-26T16:09:53.392Z,-0.10
2019-01-26T16:12:26.067Z,0.00
2019-01-26T16:14:58.362Z,0.00
2019-01-26T16:17:31.192Z,0.00
2019-01-26T16:20:06.057Z,0.00
2019-01-26T16:22:38.554Z,0.10
2019-01-26T16:25:11.843Z,0.00
2019-01-26T16:27:44.555Z,0.00
2019-01-26T16:30:20.601Z,0.00
2019-01-26T16:32:53.238Z,0.00
2019-01-26T16:35:27.569Z,0.00
2019-01-26T16:38:00.082Z,0.00
2019-01-26T16:40:34.843Z,0.00
2019-01-26T16:43:07.417Z,0.00
2019-01-26T16:45:41.450Z,0.00
2019-01-26T16:48:16.461Z,-0.10
2019-01-26T16:50:48.869Z,-0.10
2019-01-26T16:53:21.581Z,-0.10
2019-01-26T16:55:54.069Z,-0.10
2019-01-26T16:58:26.569Z,-0.10
2019-01-26T17:01:01.599Z,-0.20
2019-01-26T17:03:34.010Z,-0.20
2019-01-26T17:06:08.262Z,-0.20
2019-01-26T17:08:41.083Z,-0.20
2019-01-26T17:11:13.424Z,-0.20
2019-01-26T17:13:45.889Z,-0.20
2019-01-26T17:16:18.328Z,-0.30
2019-01-26T17:18:51.001Z,-0.20
2019-01-26T17:21:23.864Z,-0.30
2019-01-26T17:23:56.390Z,-0.30
2019-01-26T17:26:28.707Z,-0.30
2019-01-26T17:29:01.352Z,-0.30
2019-01-26T17:31:33.825Z,-0.30
2019-01-26T17:34:06.912Z,-0.30
2019-01-26T17:36:39.546Z,-0.30
2019-01-26T17:39:12.100Z,-0.30
2019-01-26T17:41:44.476Z,-0.30
2019-01-26T17:44:16.995Z,-0.30
2019-01-26T17:46:49.546Z,-0.30
2019-01-26T17:49:22.201Z,-0.30
2019-01-26T17:51:54.913Z,-0.30
2019-01-26T17:54:27.689Z,-0.30
2019-01-26T17:57:01.126Z,-0.30
2019-01-26T17:59:33.838Z,-0.30
2019-01-26T18:02:06.484Z,-0.20
2019-01-26T18:04:39.028Z,-0.20
2019-01-26T18:07:11.327Z,-0.20
2019-01-26T18:09:43.723Z,-0.10
2019-01-26T18:12:16.303Z,-0.10
2019-01-26T18:14:48.814Z,-0.10
2019-01-26T18:17:21.283Z,-0.10
2019-01-26T18:19:53.887Z,-0.10
2019-01-26T18:22:26.969Z,-0.20
2019-01-26T18:24:59.616Z,-0.20
2019-01-26T18:27:32.053Z,-0.10
2019-01-26T18:30:04.969Z,-0.10
2019-01-26T18:32:39.472Z,-0.10
2019-01-26T18:35:13.644Z,-0.10
2019-01-26T18:37:46.666Z,-0.10
2019-01-26T18:40:22.827Z,-0.10
2019-01-26T18:42:57.199Z,0.00
2019-01-26T18:45:29.781Z,0.00
2019-01-26T18:48:02.354Z,0.00
2019-01-26T18:50:37.305Z,0.00
2019-01-26T18:53:09.945Z,0.00
2019-01-26T18:55:42.432Z,0.00
2019-01-26T18:58:14.915Z,0.00
2019-01-26T19:00:50.753Z,0.00
2019-01-26T19:04:12.338Z,0.00
2019-01-26T19:06:44.751Z,0.00
2019-01-26T19:09:17.406Z,0.00
2019-01-26T19:11:49.791Z,0.00
2019-01-26T19:14:22.159Z,0.00
2019-01-26T19:16:54.696Z,0.00
2019-01-26T19:19:27.102Z,0.00
2019-01-26T19:21:59.495Z,0.10
2019-01-26T19:24:32.036Z,0.10
2019-01-26T19:27:05.020Z,0.10
2019-01-26T19:29:37.479Z,0.10
2019-01-26T19:32:09.997Z,0.10
2019-01-26T19:34:42.501Z,0.20
2019-01-26T19:37:15.702Z,0.20
2019-01-26T19:39:49.171Z,0.20
2019-01-26T19:42:21.549Z,0.20
2019-01-26T19:44:54.136Z,0.30
2019-01-26T19:47:26.619Z,0.30
2019-01-26T19:49:59.100Z,0.30
2019-01-26T19:52:31.629Z,0.30
2019-01-26T19:55:04.687Z,0.30
2019-01-26T19:57:37.525Z,0.40
2019-01-26T20:00:10.423Z,0.30
2019-01-26T20:02:42.962Z,0.30
2019-01-26T20:05:18.694Z,0.30
2019-01-26T20:07:51.651Z,0.30
2019-01-26T20:10:24.522Z,0.40
2019-01-26T20:12:57.197Z,0.40
2019-01-26T20:15:29.585Z,0.40
2019-01-26T20:18:02.149Z,0.40
2019-01-26T20:20:35.882Z,0.40
2019-01-26T20:23:08.257Z,0.40
2019-01-26T20:25:40.670Z,0.40
2019-01-26T20:28:13.277Z,0.50
2019-01-26T20:30:46.164Z,0.50
2019-01-26T20:33:18.954Z,0.50
2019-01-26T20:35:51.719Z,0.50
2019-01-26T20:38:24.295Z,0.40
2019-01-26T20:40:58.526Z,0.40
2019-01-26T20:43:30.921Z,0.50
2019-01-26T20:46:03.569Z,0.50
2019-01-26T20:48:35.958Z,0.50
2019-01-26T20:51:08.442Z,0.50
2019-01-26T20:53:41.212Z,0.50
2019-01-26T20:56:13.778Z,0.50
2019-01-26T20:58:46.164Z,0.50
2019-01-26T21:01:18.668Z,0.60
2019-01-26T21:03:51.096Z,0.50
2019-01-26T21:06:23.399Z,0.50
2019-01-26T21:08:55.956Z,0.50
2019-01-26T21:11:28.221Z,0.50
2019-01-26T21:14:00.689Z,0.50
2019-01-26T21:16:33.472Z,0.50
2019-01-26T21:19:06.199Z,0.60
2019-01-26T21:21:38.641Z,0.60
2019-01-26T21:24:11.439Z,0.60
2019-01-26T21:26:44.058Z,0.70
2019-01-26T21:29:16.647Z,0.60
2019-01-26T21:31:49.140Z,0.60
2019-01-26T21:34:21.849Z,0.60
2019-01-26T21:36:55.215Z,0.60
2019-01-26T21:39:27.975Z,0.60
2019-01-26T21:42:00.491Z,0.60
2019-01-26T21:44:33.822Z,0.60
2019-01-26T21:47:06.794Z,0.70
2019-01-26T21:49:39.553Z,0.60
2019-01-26T21:52:12.161Z,0.60
2019-01-26T21:54:44.666Z,0.60
2019-01-26T21:57:17.306Z,0.60
2019-01-26T21:59:49.919Z,0.60
2019-01-26T22:02:22.546Z,0.70
2019-01-26T22:04:55.243Z,0.70
2019-01-26T22:07:27.733Z,0.70
2019-01-26T22:10:00.363Z,0.70
2019-01-26T22:12:32.734Z,0.70
2019-01-26T22:15:06.134Z,0.70
2019-01-26T22:17:38.559Z,0.70
2019-01-26T22:20:18.287Z,0.70
2019-01-26T22:22:51.483Z,0.70
2019-01-26T22:25:24.213Z,0.70
2019-01-26T22:27:58.456Z,0.70
2019-01-26T22:30:33.702Z,0.80
2019-01-26T22:33:06.295Z,0.80
2019-01-26T22:35:38.775Z,0.80
2019-01-26T22:38:11.362Z,0.80
2019-01-26T22:40:43.826Z,0.80
2019-01-26T22:43:16.500Z,0.80
2019-01-26T22:45:49.324Z,0.80
2019-01-26T22:48:22.166Z,0.80
2019-01-26T22:50:54.849Z,0.80
2019-01-26T22:53:27.469Z,0.80
2019-01-26T22:56:00.492Z,0.80
2019-01-26T22:58:33.008Z,0.80
2019-01-26T23:01:27.147Z,0.80
2019-01-26T23:04:49.615Z,0.80
2019-01-26T23:07:44.722Z,0.90
2019-01-26T23:11:28.975Z,0.90
2019-01-26T23:14:37.094Z,0.90
2019-01-26T23:17:31.339Z,1.30
2019-01-26T23:20:56.533Z,1.20
2019-01-26T23:24:26.782Z,1.10
2019-01-26T23:27:55.825Z,1.10
2019-01-26T23:31:21.081Z,1.10
2019-01-26T23:33:57.245Z,1.00
2019-01-26T23:36:29.620Z,1.00
2019-01-26T23:39:02.744Z,1.00
2019-01-26T23:41:35.097Z,1.00
2019-01-26T23:44:07.607Z,1.00
2019-01-26T23:46:39.938Z,1.00
2019-01-26T23:49:12.325Z,1.00
2019-01-26T23:51:44.845Z,1.00
2019-01-26T23:54:17.312Z,1.00
2019-01-26T23:56:50.830Z,1.00
2019-01-26T23:59:23.220Z,1.00
